sensor_id;sensor_type;location;lat;lon;timestamp;pressure;altitude;pressure_sealevel;temperature;humidity
18749;BME280;9503;53.560;10.246;2023-06-10T00:01:10;101232.78;;;19.17;79.50
18749;BME280;9503;53.560;10.246;2023-06-10T00:03:36;101232.91;;;19.23;78.70
18749;BME280;9503;53.560;10.246;2023-06-10T00:06:04;101233.69;;;19.19;78.80
18749;BME280;9503;53.560;10.246;2023-06-10T00:08:31;101227.81;;;19.29;78.12
18749;BME280;9503;53.560;10.246;2023-06-10T00:10:58;101227.22;;;19.02;78.94
18749;BME280;9503;53.560;10.246;2023-06-10T00:13:25;101234.06;;;18.97;79.19
18749;BME280;9503;53.560;10.246;2023-06-10T00:15:52;101223.34;;;18.82;79.61
18749;BME280;9503;53.560;10.246;2023-06-10T00:18:18;101229.41;;;18.82;79.72
18749;BME280;9503;53.560;10.246;2023-06-10T00:20:47;101229.44;;;18.84;79.78
18749;BME280;9503;53.560;10.246;2023-06-10T00:23:19;101226.19;;;18.58;80.28
18749;BME280;9503;53.560;10.246;2023-06-10T00:25:46;101229.59;;;18.54;80.23
18749;BME280;9503;53.560;10.246;2023-06-10T00:28:12;101225.97;;;18.47;80.49
18749;BME280;9503;53.560;10.246;2023-06-10T00:30:39;101227.56;;;18.76;78.92
18749;BME280;9503;53.560;10.246;2023-06-10T00:33:06;101225.25;;;18.54;80.02
18749;BME280;9503;53.560;10.246;2023-06-10T00:35:32;101217.63;;;18.60;78.93
18749;BME280;9503;53.560;10.246;2023-06-10T00:37:59;101222.53;;;18.49;78.95
18749;BME280;9503;53.560;10.246;2023-06-10T00:40:27;101220.47;;;18.35;79.67
18749;BME280;9503;53.560;10.246;2023-06-10T00:42:54;101230.78;;;18.32;79.63
18749;BME280;9503;53.560;10.246;2023-06-10T00:45:21;101232.78;;;18.43;78.42
18749;BME280;9503;53.560;10.246;2023-06-10T00:47:48;101236.38;;;18.48;77.95
18749;BME280;9503;53.560;10.246;2023-06-10T00:50:14;101234.00;;;17.88;80.08
18749;BME280;9503;53.560;10.246;2023-06-10T00:52:42;101232.69;;;17.71;80.87
18749;BME280;9503;53.560;10.246;2023-06-10T00:55:10;101234.41;;;18.04;79.09
18749;BME280;9503;53.560;10.246;2023-06-10T00:57:38;101231.75;;;18.02;79.17
18749;BME280;9503;53.560;10.246;2023-06-10T01:00:06;101243.41;;;18.18;78.54
18749;BME280;9503;53.560;10.246;2023-06-10T01:02:34;101243.53;;;17.59;80.63
18749;BME280;9503;53.560;10.246;2023-06-10T01:05:01;101245.22;;;17.57;80.91
18749;BME280;9503;53.560;10.246;2023-06-10T01:07:32;101234.53;;;18.08;78.57
18749;BME280;9503;53.560;10.246;2023-06-10T01:10:02;101240.09;;;17.90;79.16
18749;BME280;9503;53.560;10.246;2023-06-10T01:12:33;101237.34;;;17.84;78.34
18749;BME280;9503;53.560;10.246;2023-06-10T01:15:02;101244.09;;;17.78;79.07
18749;BME280;9503;53.560;10.246;2023-06-10T01:17:29;101240.50;;;18.06;77.62
18749;BME280;9503;53.560;10.246;2023-06-10T01:19:57;101244.38;;;18.21;76.69
18749;BME280;9503;53.560;10.246;2023-06-10T01:22:27;101250.47;;;18.22;76.57
18749;BME280;9503;53.560;10.246;2023-06-10T01:24:57;101245.41;;;17.95;77.03
18749;BME280;9503;53.560;10.246;2023-06-10T01:27:28;101242.22;;;18.05;77.02
18749;BME280;9503;53.560;10.246;2023-06-10T01:29:59;101247.34;;;18.02;76.75
18749;BME280;9503;53.560;10.246;2023-06-10T01:32:34;101249.53;;;17.87;77.50
18749;BME280;9503;53.560;10.246;2023-06-10T01:35:05;101251.81;;;18.08;76.47
18749;BME280;9503;53.560;10.246;2023-06-10T01:37:36;101251.47;;;17.95;76.33
18749;BME280;9503;53.560;10.246;2023-06-10T01:40:06;101249.75;;;17.96;76.70
18749;BME280;9503;53.560;10.246;2023-06-10T01:42:33;101255.59;;;17.87;76.50
18749;BME280;9503;53.560;10.246;2023-06-10T01:45:00;101251.78;;;17.75;77.34
18749;BME280;9503;53.560;10.246;2023-06-10T01:47:26;101250.09;;;17.77;77.65
18749;BME280;9503;53.560;10.246;2023-06-10T01:49:53;101253.13;;;17.62;78.66
18749;BME280;9503;53.560;10.246;2023-06-10T01:52:20;101244.88;;;17.75;77.80
18749;BME280;9503;53.560;10.246;2023-06-10T01:54:48;101242.47;;;17.83;77.54
18749;BME280;9503;53.560;10.246;2023-06-10T01:57:14;101247.56;;;17.78;77.34
18749;BME280;9503;53.560;10.246;2023-06-10T01:59:41;101241.66;;;17.54;78.92
18749;BME280;9503;53.560;10.246;2023-06-10T02:02:09;101238.38;;;17.59;78.50
18749;BME280;9503;53.560;10.246;2023-06-10T02:04:36;101242.72;;;17.60;78.59
18749;BME280;9503;53.560;10.246;2023-06-10T02:07:03;101240.59;;;17.77;77.52
18749;BME280;9503;53.560;10.246;2023-06-10T02:09:31;101239.06;;;17.54;78.55
18749;BME280;9503;53.560;10.246;2023-06-10T02:12:01;101234.31;;;17.39;79.12
18749;BME280;9503;53.560;10.246;2023-06-10T02:14:28;101240.34;;;17.69;77.74
18749;BME280;9503;53.560;10.246;2023-06-10T02:16:54;101245.00;;;17.50;78.84
18749;BME280;9503;53.560;10.246;2023-06-10T02:19:22;101244.81;;;17.72;77.95
18749;BME280;9503;53.560;10.246;2023-06-10T02:21:50;101243.34;;;17.22;79.53
18749;BME280;9503;53.560;10.246;2023-06-10T02:24:17;101240.44;;;17.41;78.60
18749;BME280;9503;53.560;10.246;2023-06-10T02:26:43;101241.03;;;17.32;78.48
18749;BME280;9503;53.560;10.246;2023-06-10T02:29:11;101237.38;;;17.26;79.25
18749;BME280;9503;53.560;10.246;2023-06-10T02:31:38;101234.59;;;17.48;78.01
18749;BME280;9503;53.560;10.246;2023-06-10T02:34:06;101231.22;;;17.21;78.95
18749;BME280;9503;53.560;10.246;2023-06-10T02:36:32;101238.66;;;17.40;78.96
18749;BME280;9503;53.560;10.246;2023-06-10T02:39:01;101239.31;;;17.03;79.99
18749;BME280;9503;53.560;10.246;2023-06-10T02:41:28;101233.88;;;17.24;79.49
18749;BME280;9503;53.560;10.246;2023-06-10T02:43:54;101235.34;;;17.14;79.38
18749;BME280;9503;53.560;10.246;2023-06-10T02:46:22;101238.06;;;17.49;78.23
18749;BME280;9503;53.560;10.246;2023-06-10T02:48:49;101231.66;;;17.36;78.21
18749;BME280;9503;53.560;10.246;2023-06-10T02:51:17;101234.97;;;17.32;79.08
18749;BME280;9503;53.560;10.246;2023-06-10T02:53:43;101233.69;;;17.48;78.27
18749;BME280;9503;53.560;10.246;2023-06-10T02:56:10;101241.31;;;17.42;78.15
18749;BME280;9503;53.560;10.246;2023-06-10T02:58:38;101243.34;;;17.52;77.71
18749;BME280;9503;53.560;10.246;2023-06-10T03:01:04;101247.56;;;17.48;78.02
18749;BME280;9503;53.560;10.246;2023-06-10T03:03:32;101245.31;;;17.30;78.72
18749;BME280;9503;53.560;10.246;2023-06-10T03:06:00;101250.19;;;17.50;77.67
18749;BME280;9503;53.560;10.246;2023-06-10T03:08:27;101256.13;;;17.46;77.44
18749;BME280;9503;53.560;10.246;2023-06-10T03:10:55;101257.28;;;17.55;77.79
18749;BME280;9503;53.560;10.246;2023-06-10T03:13:21;101255.28;;;17.77;76.81
18749;BME280;9503;53.560;10.246;2023-06-10T03:15:49;101264.78;;;17.76;76.46
18749;BME280;9503;53.560;10.246;2023-06-10T03:18:15;101254.59;;;17.52;77.30
18749;BME280;9503;53.560;10.246;2023-06-10T03:20:43;101256.16;;;17.47;77.80
18749;BME280;9503;53.560;10.246;2023-06-10T03:23:10;101254.94;;;17.64;77.35
18749;BME280;9503;53.560;10.246;2023-06-10T03:25:37;101254.63;;;17.84;76.25
18749;BME280;9503;53.560;10.246;2023-06-10T03:28:04;101253.66;;;17.80;76.70
18749;BME280;9503;53.560;10.246;2023-06-10T03:30:30;101255.47;;;17.83;76.82
18749;BME280;9503;53.560;10.246;2023-06-10T03:32:57;101257.06;;;17.78;77.08
18749;BME280;9503;53.560;10.246;2023-06-10T03:35:23;101254.22;;;18.00;76.17
18749;BME280;9503;53.560;10.246;2023-06-10T03:37:52;101256.63;;;17.94;76.09
18749;BME280;9503;53.560;10.246;2023-06-10T03:40:18;101250.50;;;17.92;76.34
18749;BME280;9503;53.560;10.246;2023-06-10T03:42:45;101251.31;;;17.89;77.05
18749;BME280;9503;53.560;10.246;2023-06-10T03:45:12;101253.63;;;18.12;75.86
18749;BME280;9503;53.560;10.246;2023-06-10T03:47:38;101260.34;;;18.37;75.20
18749;BME280;9503;53.560;10.246;2023-06-10T03:50:06;101252.94;;;18.52;74.73
18749;BME280;9503;53.560;10.246;2023-06-10T03:52:33;101256.06;;;18.39;75.03
18749;BME280;9503;53.560;10.246;2023-06-10T03:55:02;101258.59;;;18.03;75.43
18749;BME280;9503;53.560;10.246;2023-06-10T03:57:31;101254.50;;;18.45;75.52
18749;BME280;9503;53.560;10.246;2023-06-10T03:59:58;101257.31;;;18.20;75.81
18749;BME280;9503;53.560;10.246;2023-06-10T04:02:24;101255.53;;;18.52;74.59
18749;BME280;9503;53.560;10.246;2023-06-10T04:04:51;101254.53;;;19.22;72.83
18749;BME280;9503;53.560;10.246;2023-06-10T04:07:18;101255.13;;;19.92;70.11
18749;BME280;9503;53.560;10.246;2023-06-10T04:09:45;101250.09;;;20.53;67.68
18749;BME280;9503;53.560;10.246;2023-06-10T04:12:14;101254.41;;;20.49;68.33
18749;BME280;9503;53.560;10.246;2023-06-10T04:14:42;101260.72;;;21.27;65.67
18749;BME280;9503;53.560;10.246;2023-06-10T04:17:08;101258.97;;;21.99;63.44
18749;BME280;9503;53.560;10.246;2023-06-10T04:19:35;101262.88;;;22.41;62.20
18749;BME280;9503;53.560;10.246;2023-06-10T04:22:02;101265.31;;;22.19;61.82
18749;BME280;9503;53.560;10.246;2023-06-10T04:24:30;101265.03;;;22.97;60.09
18749;BME280;9503;53.560;10.246;2023-06-10T04:26:57;101263.25;;;22.88;59.79
18749;BME280;9503;53.560;10.246;2023-06-10T04:29:25;101255.56;;;23.19;59.18
18749;BME280;9503;53.560;10.246;2023-06-10T04:31:51;101269.94;;;22.51;61.71
18749;BME280;9503;53.560;10.246;2023-06-10T04:34:18;101265.16;;;23.18;59.75
18749;BME280;9503;53.560;10.246;2023-06-10T04:36:44;101264.59;;;24.00;57.80
18749;BME280;9503;53.560;10.246;2023-06-10T04:39:11;101262.88;;;24.14;57.40
18749;BME280;9503;53.560;10.246;2023-06-10T04:41:38;101270.59;;;25.43;54.55
18749;BME280;9503;53.560;10.246;2023-06-10T04:44:05;101271.47;;;25.39;54.60
18749;BME280;9503;53.560;10.246;2023-06-10T04:46:33;101266.34;;;25.06;55.25
18749;BME280;9503;53.560;10.246;2023-06-10T04:48:59;101259.38;;;24.27;57.05
18749;BME280;9503;53.560;10.246;2023-06-10T04:51:26;101269.84;;;24.31;57.11
18749;BME280;9503;53.560;10.246;2023-06-10T04:53:52;101262.00;;;24.67;56.47
18749;BME280;9503;53.560;10.246;2023-06-10T04:56:19;101260.00;;;23.29;59.40
18749;BME280;9503;53.560;10.246;2023-06-10T04:58:47;101261.34;;;21.74;63.01
18749;BME280;9503;53.560;10.246;2023-06-10T05:01:14;101258.69;;;21.05;65.66
18749;BME280;9503;53.560;10.246;2023-06-10T05:03:42;101259.91;;;20.19;69.48
18749;BME280;9503;53.560;10.246;2023-06-10T05:06:08;101248.38;;;20.55;69.03
18749;BME280;9503;53.560;10.246;2023-06-10T05:08:35;101255.28;;;21.77;65.13
18749;BME280;9503;53.560;10.246;2023-06-10T05:11:02;101254.94;;;22.31;63.70
18749;BME280;9503;53.560;10.246;2023-06-10T05:13:28;101259.28;;;23.71;59.94
18749;BME280;9503;53.560;10.246;2023-06-10T05:15:55;101258.34;;;25.43;56.77
18749;BME280;9503;53.560;10.246;2023-06-10T05:18:21;101268.84;;;25.43;55.75
18749;BME280;9503;53.560;10.246;2023-06-10T05:20:49;101268.13;;;24.91;55.98
18749;BME280;9503;53.560;10.246;2023-06-10T05:23:16;101282.72;;;25.76;54.89
18749;BME280;9503;53.560;10.246;2023-06-10T05:25:43;101284.31;;;26.03;54.54
18749;BME280;9503;53.560;10.246;2023-06-10T05:28:09;101276.84;;;26.63;52.94
18749;BME280;9503;53.560;10.246;2023-06-10T05:30:36;101276.84;;;26.63;51.88
18749;BME280;9503;53.560;10.246;2023-06-10T05:33:03;101284.16;;;26.26;52.68
18749;BME280;9503;53.560;10.246;2023-06-10T05:35:30;101272.47;;;24.15;56.33
18749;BME280;9503;53.560;10.246;2023-06-10T05:37:58;101272.44;;;23.80;58.56
18749;BME280;9503;53.560;10.246;2023-06-10T05:40:24;101271.56;;;23.87;58.58
18749;BME280;9503;53.560;10.246;2023-06-10T05:42:51;101268.06;;;25.17;56.15
18749;BME280;9503;53.560;10.246;2023-06-10T05:45:17;101262.03;;;24.52;57.14
18749;BME280;9503;53.560;10.246;2023-06-10T05:47:44;101261.03;;;23.66;59.09
18749;BME280;9503;53.560;10.246;2023-06-10T05:50:11;101251.13;;;23.04;60.52
18749;BME280;9503;53.560;10.246;2023-06-10T05:52:37;101260.22;;;22.34;62.85
18749;BME280;9503;53.560;10.246;2023-06-10T05:55:07;101262.16;;;21.69;64.07
18749;BME280;9503;53.560;10.246;2023-06-10T05:57:34;101254.31;;;21.69;65.32
18749;BME280;9503;53.560;10.246;2023-06-10T06:00:01;101251.94;;;21.20;67.07
18749;BME280;9503;53.560;10.246;2023-06-10T06:02:27;101249.63;;;21.39;65.80
18749;BME280;9503;53.560;10.246;2023-06-10T06:04:54;101246.97;;;22.12;64.46
18749;BME280;9503;53.560;10.246;2023-06-10T06:07:21;101248.13;;;21.61;65.29
18749;BME280;9503;53.560;10.246;2023-06-10T06:09:48;101241.88;;;21.46;65.90
18749;BME280;9503;53.560;10.246;2023-06-10T06:12:16;101252.66;;;21.77;65.98
18749;BME280;9503;53.560;10.246;2023-06-10T06:14:43;101250.66;;;22.37;64.04
18749;BME280;9503;53.560;10.246;2023-06-10T06:17:10;101248.25;;;22.69;63.14
18749;BME280;9503;53.560;10.246;2023-06-10T06:19:36;101248.91;;;22.34;63.57
18749;BME280;9503;53.560;10.246;2023-06-10T06:22:03;101248.91;;;22.39;63.83
18749;BME280;9503;53.560;10.246;2023-06-10T06:24:30;101245.75;;;22.81;62.73
18749;BME280;9503;53.560;10.246;2023-06-10T06:26:57;101249.38;;;23.04;62.08
18749;BME280;9503;53.560;10.246;2023-06-10T06:29:25;101246.88;;;23.23;61.26
18749;BME280;9503;53.560;10.246;2023-06-10T06:31:51;101237.03;;;22.80;63.15
18749;BME280;9503;53.560;10.246;2023-06-10T06:34:18;101252.78;;;22.89;62.33
18749;BME280;9503;53.560;10.246;2023-06-10T06:36:45;101244.13;;;22.92;62.71
18749;BME280;9503;53.560;10.246;2023-06-10T06:39:11;101254.47;;;22.83;62.56
18749;BME280;9503;53.560;10.246;2023-06-10T06:41:39;101250.69;;;22.43;64.02
18749;BME280;9503;53.560;10.246;2023-06-10T06:44:05;101246.16;;;22.22;64.92
18749;BME280;9503;53.560;10.246;2023-06-10T06:46:33;101256.06;;;21.68;66.47
18749;BME280;9503;53.560;10.246;2023-06-10T06:49:00;101253.31;;;22.41;64.59
18749;BME280;9503;53.560;10.246;2023-06-10T06:51:26;101255.88;;;22.35;64.52
18749;BME280;9503;53.560;10.246;2023-06-10T06:53:53;101252.91;;;23.11;63.41
18749;BME280;9503;53.560;10.246;2023-06-10T06:56:23;101262.28;;;22.77;63.20
18749;BME280;9503;53.560;10.246;2023-06-10T06:58:50;101259.63;;;22.74;63.27
18749;BME280;9503;53.560;10.246;2023-06-10T07:01:16;101255.50;;;23.05;62.81
18749;BME280;9503;53.560;10.246;2023-06-10T07:03:44;101254.63;;;23.01;62.87
18749;BME280;9503;53.560;10.246;2023-06-10T07:06:12;101252.13;;;23.26;62.60
18749;BME280;9503;53.560;10.246;2023-06-10T07:08:39;101252.03;;;23.13;62.59
18749;BME280;9503;53.560;10.246;2023-06-10T07:11:05;101251.09;;;22.95;63.56
18749;BME280;9503;53.560;10.246;2023-06-10T07:13:32;101258.81;;;22.84;63.34
18749;BME280;9503;53.560;10.246;2023-06-10T07:15:58;101259.31;;;23.86;61.38
18749;BME280;9503;53.560;10.246;2023-06-10T07:18:25;101260.84;;;23.26;62.22
18749;BME280;9503;53.560;10.246;2023-06-10T07:20:53;101260.00;;;23.30;62.70
18749;BME280;9503;53.560;10.246;2023-06-10T07:23:20;101271.53;;;23.74;61.93
18749;BME280;9503;53.560;10.246;2023-06-10T07:25:46;101268.03;;;23.76;62.11
18749;BME280;9503;53.560;10.246;2023-06-10T07:28:13;101275.91;;;23.75;61.81
18749;BME280;9503;53.560;10.246;2023-06-10T07:30:40;101267.22;;;23.95;61.29
18749;BME280;9503;53.560;10.246;2023-06-10T07:33:06;101261.97;;;23.92;61.55
18749;BME280;9503;53.560;10.246;2023-06-10T07:35:33;101273.34;;;24.30;59.97
18749;BME280;9503;53.560;10.246;2023-06-10T07:38:01;101269.94;;;24.46;60.29
18749;BME280;9503;53.560;10.246;2023-06-10T07:40:27;101270.66;;;23.76;61.71
18749;BME280;9503;53.560;10.246;2023-06-10T07:42:55;101271.63;;;24.74;60.39
18749;BME280;9503;53.560;10.246;2023-06-10T07:45:21;101277.75;;;25.05;59.17
18749;BME280;9503;53.560;10.246;2023-06-10T07:47:48;101268.16;;;24.63;60.02
18749;BME280;9503;53.560;10.246;2023-06-10T07:50:15;101271.59;;;24.93;59.33
18749;BME280;9503;53.560;10.246;2023-06-10T07:52:42;101265.50;;;24.60;60.05
18749;BME280;9503;53.560;10.246;2023-06-10T07:55:10;101268.13;;;24.72;59.80
18749;BME280;9503;53.560;10.246;2023-06-10T07:57:36;101262.84;;;25.04;58.56
18749;BME280;9503;53.560;10.246;2023-06-10T08:00:05;101259.31;;;25.21;59.49
18749;BME280;9503;53.560;10.246;2023-06-10T08:02:32;101264.66;;;24.83;59.63
18749;BME280;9503;53.560;10.246;2023-06-10T08:04:58;101264.59;;;25.13;58.81
18749;BME280;9503;53.560;10.246;2023-06-10T08:07:25;101269.88;;;24.27;60.63
18749;BME280;9503;53.560;10.246;2023-06-10T08:09:51;101270.69;;;25.01;59.83
18749;BME280;9503;53.560;10.246;2023-06-10T08:12:19;101269.16;;;26.41;56.46
18749;BME280;9503;53.560;10.246;2023-06-10T08:14:46;101271.31;;;25.81;58.07
18749;BME280;9503;53.560;10.246;2023-06-10T08:17:13;101266.25;;;25.35;58.53
18749;BME280;9503;53.560;10.246;2023-06-10T08:19:39;101277.63;;;25.42;58.60
18749;BME280;9503;53.560;10.246;2023-06-10T08:22:06;101272.22;;;25.71;58.39
18749;BME280;9503;53.560;10.246;2023-06-10T08:24:32;101273.13;;;25.64;57.87
18749;BME280;9503;53.560;10.246;2023-06-10T08:26:59;101274.84;;;25.71;57.65
18749;BME280;9503;53.560;10.246;2023-06-10T08:29:27;101275.94;;;25.18;58.92
18749;BME280;9503;53.560;10.246;2023-06-10T08:31:55;101272.97;;;25.96;58.56
18749;BME280;9503;53.560;10.246;2023-06-10T08:34:21;101274.53;;;26.20;57.69
18749;BME280;9503;53.560;10.246;2023-06-10T08:36:48;101268.22;;;26.49;56.69
18749;BME280;9503;53.560;10.246;2023-06-10T08:39:18;101271.50;;;26.74;55.84
18749;BME280;9503;53.560;10.246;2023-06-10T08:41:51;101268.88;;;26.70;56.21
18749;BME280;9503;53.560;10.246;2023-06-10T08:44:29;101263.88;;;26.43;55.98
18749;BME280;9503;53.560;10.246;2023-06-10T08:46:59;101276.75;;;26.72;56.20
18749;BME280;9503;53.560;10.246;2023-06-10T08:49:26;101266.28;;;26.66;56.85
18749;BME280;9503;53.560;10.246;2023-06-10T08:51:59;101272.38;;;26.74;56.52
18749;BME280;9503;53.560;10.246;2023-06-10T08:54:31;101268.28;;;26.36;56.88
18749;BME280;9503;53.560;10.246;2023-06-10T08:56:59;101265.16;;;25.87;58.02
18749;BME280;9503;53.560;10.246;2023-06-10T08:59:26;101270.56;;;26.79;56.44
18749;BME280;9503;53.560;10.246;2023-06-10T09:01:54;101265.34;;;26.73;55.75
18749;BME280;9503;53.560;10.246;2023-06-10T09:04:21;101273.63;;;26.26;56.50
18749;BME280;9503;53.560;10.246;2023-06-10T09:06:51;101261.41;;;26.20;57.68
18749;BME280;9503;53.560;10.246;2023-06-10T09:09:17;101266.06;;;26.87;56.36
18749;BME280;9503;53.560;10.246;2023-06-10T09:11:45;101265.41;;;27.48;55.36
18749;BME280;9503;53.560;10.246;2023-06-10T09:14:11;101264.81;;;27.26;54.95
18749;BME280;9503;53.560;10.246;2023-06-10T09:16:38;101258.50;;;27.38;55.47
18749;BME280;9503;53.560;10.246;2023-06-10T09:19:07;101259.75;;;27.08;55.83
18749;BME280;9503;53.560;10.246;2023-06-10T09:21:34;101248.44;;;26.95;56.63
18749;BME280;9503;53.560;10.246;2023-06-10T09:24:01;101253.44;;;26.31;57.83
18749;BME280;9503;53.560;10.246;2023-06-10T09:26:28;101249.97;;;27.19;56.29
18749;BME280;9503;53.560;10.246;2023-06-10T09:28:58;101253.19;;;26.63;56.98
18749;BME280;9503;53.560;10.246;2023-06-10T09:31:29;101249.00;;;27.28;56.46
18749;BME280;9503;53.560;10.246;2023-06-10T09:34:06;101253.50;;;27.18;55.96
18749;BME280;9503;53.560;10.246;2023-06-10T09:36:33;101255.88;;;27.38;55.78
18749;BME280;9503;53.560;10.246;2023-06-10T09:39:00;101251.91;;;27.00;56.73
18749;BME280;9503;53.560;10.246;2023-06-10T09:41:32;101253.16;;;26.67;57.54
18749;BME280;9503;53.560;10.246;2023-06-10T09:43:58;101251.81;;;27.13;56.72
18749;BME280;9503;53.560;10.246;2023-06-10T09:46:30;101257.66;;;27.36;56.68
18749;BME280;9503;53.560;10.246;2023-06-10T09:48:57;101252.78;;;27.76;55.35
18749;BME280;9503;53.560;10.246;2023-06-10T09:51:26;101257.56;;;28.07;55.36
18749;BME280;9503;53.560;10.246;2023-06-10T09:53:53;101252.63;;;27.86;55.29
18749;BME280;9503;53.560;10.246;2023-06-10T09:56:20;101258.34;;;28.14;54.92
18749;BME280;9503;53.560;10.246;2023-06-10T09:58:53;101247.56;;;28.27;54.44
18749;BME280;9503;53.560;10.246;2023-06-10T10:01:19;101248.34;;;28.34;54.30
18749;BME280;9503;53.560;10.246;2023-06-10T10:03:47;101250.25;;;28.77;53.42
18749;BME280;9503;53.560;10.246;2023-06-10T10:06:15;101252.69;;;29.74;52.34
18749;BME280;9503;53.560;10.246;2023-06-10T10:08:43;101262.28;;;29.78;52.04
18749;BME280;9503;53.560;10.246;2023-06-10T10:11:10;101253.41;;;29.81;51.68
18749;BME280;9503;53.560;10.246;2023-06-10T10:13:37;101260.06;;;31.02;49.47
18749;BME280;9503;53.560;10.246;2023-06-10T10:16:12;101254.19;;;30.91;49.08
18749;BME280;9503;53.560;10.246;2023-06-10T10:18:43;101261.47;;;31.75;48.25
18749;BME280;9503;53.560;10.246;2023-06-10T10:21:13;101264.66;;;32.14;47.77
18749;BME280;9503;53.560;10.246;2023-06-10T10:23:49;101261.25;;;32.63;46.74
18749;BME280;9503;53.560;10.246;2023-06-10T10:26:21;101273.94;;;32.80;46.63
18749;BME280;9503;53.560;10.246;2023-06-10T10:28:51;101268.13;;;32.16;47.45
18749;BME280;9503;53.560;10.246;2023-06-10T10:31:21;101261.41;;;32.34;47.34
18749;BME280;9503;53.560;10.246;2023-06-10T10:33:52;101259.41;;;32.90;46.01
18749;BME280;9503;53.560;10.246;2023-06-10T10:36:21;101254.28;;;32.34;46.79
18749;BME280;9503;53.560;10.246;2023-06-10T10:38:50;101255.63;;;33.68;45.77
18749;BME280;9503;53.560;10.246;2023-06-10T10:41:17;101262.34;;;33.54;45.47
18749;BME280;9503;53.560;10.246;2023-06-10T10:43:44;101260.56;;;33.55;45.25
18749;BME280;9503;53.560;10.246;2023-06-10T10:46:13;101256.47;;;32.73;46.42
18749;BME280;9503;53.560;10.246;2023-06-10T10:48:41;101262.25;;;32.86;45.88
18749;BME280;9503;53.560;10.246;2023-06-10T10:51:08;101254.78;;;32.19;47.07
18749;BME280;9503;53.560;10.246;2023-06-10T10:53:37;101245.53;;;32.32;46.48
18749;BME280;9503;53.560;10.246;2023-06-10T10:56:07;101255.34;;;33.05;46.13
18749;BME280;9503;53.560;10.246;2023-06-10T10:58:34;101260.34;;;33.38;45.49
18749;BME280;9503;53.560;10.246;2023-06-10T11:01:10;101248.84;;;33.83;44.75
18749;BME280;9503;53.560;10.246;2023-06-10T11:03:42;101253.50;;;33.54;46.12
18749;BME280;9503;53.560;10.246;2023-06-10T11:06:12;101249.00;;;32.84;46.26
18749;BME280;9503;53.560;10.246;2023-06-10T11:08:46;101249.00;;;33.09;46.26
18749;BME280;9503;53.560;10.246;2023-06-10T11:11:23;101256.03;;;32.60;47.07
18749;BME280;9503;53.560;10.246;2023-06-10T11:14:07;101255.63;;;32.97;47.26
18749;BME280;9503;53.560;10.246;2023-06-10T11:16:39;101256.56;;;33.89;45.36
18749;BME280;9503;53.560;10.246;2023-06-10T11:19:07;101255.97;;;34.04;45.59
18749;BME280;9503;53.560;10.246;2023-06-10T11:21:45;101259.97;;;33.23;46.87
18749;BME280;9503;53.560;10.246;2023-06-10T11:24:23;101253.16;;;33.63;45.75
18749;BME280;9503;53.560;10.246;2023-06-10T11:26:51;101247.13;;;32.88;46.44
18749;BME280;9503;53.560;10.246;2023-06-10T11:29:18;101248.31;;;33.51;46.26
18749;BME280;9503;53.560;10.246;2023-06-10T11:31:49;101243.03;;;33.26;46.44
18749;BME280;9503;53.560;10.246;2023-06-10T11:34:22;101238.81;;;32.97;46.70
18749;BME280;9503;53.560;10.246;2023-06-10T11:36:51;101239.28;;;33.08;46.47
18749;BME280;9503;53.560;10.246;2023-06-10T11:39:19;101234.47;;;33.18;46.15
18749;BME280;9503;53.560;10.246;2023-06-10T11:41:46;101230.84;;;32.72;47.45
18749;BME280;9503;53.560;10.246;2023-06-10T11:44:15;101235.06;;;32.78;47.22
18749;BME280;9503;53.560;10.246;2023-06-10T11:46:42;101226.97;;;32.04;48.21
18749;BME280;9503;53.560;10.246;2023-06-10T11:49:09;101233.34;;;32.25;47.87
18749;BME280;9503;53.560;10.246;2023-06-10T11:51:36;101233.47;;;32.98;47.19
18749;BME280;9503;53.560;10.246;2023-06-10T11:54:04;101236.47;;;33.81;45.49
18749;BME280;9503;53.560;10.246;2023-06-10T11:56:31;101227.72;;;34.22;45.10
18749;BME280;9503;53.560;10.246;2023-06-10T11:59:00;101233.88;;;33.35;45.66
18749;BME280;9503;53.560;10.246;2023-06-10T12:01:32;101228.13;;;33.22;46.72
18749;BME280;9503;53.560;10.246;2023-06-10T12:04:00;101240.78;;;33.62;46.22
18749;BME280;9503;53.560;10.246;2023-06-10T12:06:28;101224.81;;;33.62;45.61
18749;BME280;9503;53.560;10.246;2023-06-10T12:09:03;101224.88;;;33.61;46.36
18749;BME280;9503;53.560;10.246;2023-06-10T12:11:30;101223.56;;;33.94;45.62
18749;BME280;9503;53.560;10.246;2023-06-10T12:13:57;101216.78;;;34.91;44.72
18749;BME280;9503;53.560;10.246;2023-06-10T12:16:23;101224.22;;;34.82;44.25
18749;BME280;9503;53.560;10.246;2023-06-10T12:19:01;101222.25;;;35.25;43.17
18749;BME280;9503;53.560;10.246;2023-06-10T12:21:28;101223.69;;;35.32;43.56
18749;BME280;9503;53.560;10.246;2023-06-10T12:24:02;101225.16;;;35.21;43.40
18749;BME280;9503;53.560;10.246;2023-06-10T12:26:42;101215.22;;;34.24;44.73
18749;BME280;9503;53.560;10.246;2023-06-10T12:29:17;101224.19;;;35.03;43.63
18749;BME280;9503;53.560;10.246;2023-06-10T12:31:53;101211.06;;;35.74;41.23
18749;BME280;9503;53.560;10.246;2023-06-10T12:34:28;101215.69;;;37.08;40.52
18749;BME280;9503;53.560;10.246;2023-06-10T12:36:54;101219.38;;;35.67;42.39
18749;BME280;9503;53.560;10.246;2023-06-10T12:39:21;101204.53;;;36.67;41.11
18749;BME280;9503;53.560;10.246;2023-06-10T12:41:47;101197.94;;;36.57;41.30
18749;BME280;9503;53.560;10.246;2023-06-10T12:44:14;101198.56;;;36.62;40.08
18749;BME280;9503;53.560;10.246;2023-06-10T12:46:41;101198.19;;;37.66;40.21
18749;BME280;9503;53.560;10.246;2023-06-10T12:49:08;101192.44;;;36.60;40.40
18749;BME280;9503;53.560;10.246;2023-06-10T12:51:47;101194.97;;;35.94;40.18
18749;BME280;9503;53.560;10.246;2023-06-10T12:54:14;101194.88;;;35.95;40.58